createdAt,value
2023-04-20T00:01:51.647Z,22.73
2023-04-20T00:04:18.372Z,23.85
2023-04-20T00:06:44.053Z,25.83
2023-04-20T00:09:09.263Z,25.15
2023-04-20T00:11:33.754Z,25.25
2023-04-20T00:13:58.793Z,22.45
2023-04-20T00:16:23.321Z,22.17
2023-04-20T00:18:48.167Z,23.95
2023-04-20T00:21:14.218Z,24.20
2023-04-20T00:23:38.748Z,23.67
2023-04-20T00:26:03.148Z,23.10
2023-04-20T00:28:27.634Z,23.30
2023-04-20T00:30:52.091Z,23.02
2023-04-20T00:33:16.586Z,23.35
2023-04-20T00:35:40.998Z,23.10
2023-04-20T00:38:06.889Z,22.92
2023-04-20T00:40:31.307Z,22.77
2023-04-20T00:42:55.804Z,23.00
2023-04-20T00:45:22.322Z,22.10
2023-04-20T00:47:47.470Z,22.75
2023-04-20T00:50:12.740Z,24.15
2023-04-20T00:52:37.454Z,24.92
2023-04-20T00:55:04.161Z,22.73
2023-04-20T00:57:29.628Z,24.48
2023-04-20T00:59:54.000Z,24.63
2023-04-20T01:02:20.028Z,23.70
2023-04-20T01:04:44.431Z,27.30
2023-04-20T01:07:09.023Z,25.92
2023-04-20T01:09:33.403Z,24.80
2023-04-20T01:11:59.211Z,25.10
2023-04-20T01:14:23.746Z,24.13
2023-04-20T01:16:49.740Z,22.80
2023-04-20T01:19:14.295Z,21.63
2023-04-20T01:21:38.977Z,22.98
2023-04-20T01:24:04.903Z,23.90
2023-04-20T01:26:30.217Z,24.25
2023-04-20T01:28:54.802Z,22.85
2023-04-20T01:31:19.358Z,21.60
2023-04-20T01:33:43.781Z,20.05
2023-04-20T01:36:09.745Z,19.65
2023-04-20T01:38:35.034Z,19.20
2023-04-20T01:41:02.226Z,19.75
2023-04-20T01:43:26.896Z,21.58
2023-04-20T01:45:54.371Z,24.73
2023-04-20T01:48:18.754Z,21.20
2023-04-20T01:50:43.207Z,21.17
2023-04-20T01:53:09.686Z,21.20
2023-04-20T01:55:34.493Z,20.95
2023-04-20T01:58:00.389Z,20.85
2023-04-20T02:00:25.122Z,22.67
2023-04-20T02:02:49.806Z,21.92
2023-04-20T02:05:14.476Z,24.83
2023-04-20T02:07:38.954Z,21.08
2023-04-20T02:10:04.813Z,22.70
2023-04-20T02:12:29.277Z,25.48
2023-04-20T02:14:55.250Z,25.52
2023-04-20T02:17:41.145Z,25.23
2023-04-20T02:20:07.445Z,23.85
2023-04-20T02:22:35.003Z,20.52
2023-04-20T02:24:59.522Z,21.33
2023-04-20T02:27:24.012Z,24.88
2023-04-20T02:29:48.341Z,27.20
2023-04-20T02:32:14.192Z,26.15
2023-04-20T02:34:39.578Z,27.90
2023-04-20T02:37:04.499Z,27.95
2023-04-20T02:39:28.962Z,28.48
2023-04-20T02:41:53.345Z,28.23
2023-04-20T02:44:18.263Z,28.67
2023-04-20T02:46:43.092Z,27.00
2023-04-20T02:49:09.097Z,26.90
2023-04-20T02:51:38.073Z,27.98
2023-04-20T02:54:02.581Z,26.38
2023-04-20T02:56:27.269Z,28.35
2023-04-20T02:58:54.496Z,27.27
2023-04-20T03:01:35.950Z,27.15
2023-04-20T03:04:08.996Z,28.42
2023-04-20T03:06:40.449Z,28.23
2023-04-20T03:09:09.005Z,25.83
2023-04-20T03:11:53.644Z,26.38
2023-04-20T03:14:36.651Z,26.70
2023-04-20T03:17:01.701Z,25.13
2023-04-20T03:19:27.588Z,26.15
2023-04-20T03:21:52.058Z,27.70
2023-04-20T03:24:16.913Z,22.45
2023-04-20T03:26:42.107Z,24.90
2023-04-20T03:29:18.820Z,25.38
2023-04-20T03:31:43.552Z,24.88
2023-04-20T03:34:09.037Z,23.77
2023-04-20T03:36:35.276Z,24.95
2023-04-20T03:38:59.695Z,25.27
2023-04-20T03:41:25.197Z,24.27
2023-04-20T03:43:49.592Z,26.83
2023-04-20T03:46:14.099Z,25.25
2023-04-20T03:48:38.578Z,25.42
2023-04-20T03:51:03.077Z,28.23
2023-04-20T03:53:30.327Z,26.27
2023-04-20T03:55:55.513Z,27.52
2023-04-20T03:58:20.091Z,26.90
2023-04-20T04:01:15.846Z,27.20
2023-04-20T04:03:44.961Z,28.40
2023-04-20T04:06:11.499Z,28.65
2023-04-20T04:08:37.421Z,27.75
2023-04-20T04:11:02.294Z,26.77
2023-04-20T04:13:27.132Z,27.23
2023-04-20T04:15:51.628Z,25.27
2023-04-20T04:18:16.537Z,28.83
2023-04-20T04:20:41.003Z,26.58
2023-04-20T04:23:07.898Z,26.70
2023-04-20T04:25:42.852Z,27.15
2023-04-20T04:28:09.623Z,28.58
2023-04-20T04:30:40.674Z,27.00
2023-04-20T04:33:06.098Z,26.90
2023-04-20T04:35:34.675Z,27.45
2023-04-20T04:37:59.451Z,26.50
2023-04-20T04:40:24.037Z,26.27
2023-04-20T04:42:53.905Z,25.38
2023-04-20T04:45:18.646Z,27.35
2023-04-20T04:47:44.040Z,28.30
2023-04-20T04:50:10.576Z,27.17
2023-04-20T04:52:35.100Z,27.08
2023-04-20T04:54:59.607Z,28.08
2023-04-20T04:57:24.004Z,26.23
2023-04-20T04:59:49.863Z,26.27
2023-04-20T05:02:14.288Z,27.30
2023-04-20T05:04:39.007Z,26.52
2023-04-20T05:07:03.492Z,27.13
2023-04-20T05:09:33.336Z,28.17
2023-04-20T05:11:57.683Z,28.25
2023-04-20T05:14:22.192Z,27.67
2023-04-20T05:16:48.099Z,28.85
2023-04-20T05:19:12.501Z,27.42
2023-04-20T05:21:38.214Z,27.75
2023-04-20T05:24:02.660Z,27.40
2023-04-20T05:26:27.235Z,26.38
2023-04-20T05:28:51.797Z,27.42
2023-04-20T05:31:16.255Z,27.05
2023-04-20T05:33:43.384Z,26.60
2023-04-20T05:36:10.694Z,27.63
2023-04-20T05:38:35.354Z,26.92
2023-04-20T05:40:59.753Z,25.55
2023-04-20T05:43:24.240Z,26.60
2023-04-20T05:45:50.266Z,29.05
2023-04-20T05:48:14.659Z,25.83
2023-04-20T05:50:40.433Z,35.55
2023-04-20T05:53:04.961Z,30.10
2023-04-20T05:55:29.388Z,29.40
2023-04-20T05:57:54.221Z,26.95
2023-04-20T06:00:19.573Z,24.55
2023-04-20T06:02:44.658Z,24.65
2023-04-20T06:05:12.876Z,25.27
2023-04-20T06:07:39.568Z,26.52
2023-04-20T06:10:05.219Z,26.45
2023-04-20T06:12:30.150Z,25.48
2023-04-20T06:14:54.619Z,24.63
2023-04-20T06:17:19.105Z,26.38
2023-04-20T06:19:43.791Z,26.17
2023-04-20T06:22:08.934Z,26.20
2023-04-20T06:24:35.252Z,29.85
2023-04-20T06:26:59.890Z,29.02
2023-04-20T06:29:24.397Z,30.08
2023-04-20T06:31:49.057Z,29.65
2023-04-20T06:34:14.982Z,29.90
2023-04-20T06:36:43.127Z,29.60
2023-04-20T06:39:07.772Z,29.80
2023-04-20T06:41:33.804Z,29.60
2023-04-20T06:44:03.537Z,30.77
2023-04-20T06:46:28.272Z,29.85
2023-04-20T06:48:52.794Z,30.17
2023-04-20T06:51:17.305Z,31.58
2023-04-20T06:53:41.778Z,30.67
2023-04-20T06:56:09.777Z,31.77
2023-04-20T06:58:35.693Z,31.88
2023-04-20T07:01:00.345Z,32.13
2023-04-20T07:03:27.956Z,34.20
2023-04-20T07:05:52.519Z,32.35
2023-04-20T07:08:16.978Z,34.33
2023-04-20T07:10:41.504Z,35.33
2023-04-20T07:13:05.965Z,36.30
2023-04-20T07:15:31.976Z,35.75
2023-04-20T07:17:56.520Z,37.45
2023-04-20T07:20:21.299Z,35.28
2023-04-20T07:22:47.089Z,35.80
2023-04-20T07:25:11.845Z,33.30
2023-04-20T07:27:37.314Z,33.13
2023-04-20T07:30:01.998Z,34.97
2023-04-20T07:32:29.400Z,33.92
2023-04-20T07:34:53.969Z,35.70
2023-04-20T07:37:18.658Z,31.95
2023-04-20T07:39:46.913Z,34.22
2023-04-20T07:42:11.487Z,33.95
2023-04-20T07:44:36.812Z,34.53
2023-04-20T07:47:02.910Z,34.08
2023-04-20T07:49:28.961Z,33.28
2023-04-20T07:51:55.437Z,31.90
2023-04-20T07:54:25.398Z,32.13
2023-04-20T07:56:49.800Z,32.42
2023-04-20T07:59:14.321Z,34.22
2023-04-20T08:01:38.685Z,33.42
2023-04-20T08:04:03.341Z,34.35
2023-04-20T08:06:29.609Z,33.05
2023-04-20T08:08:54.116Z,31.65
2023-04-20T08:11:18.635Z,32.03
2023-04-20T08:13:43.224Z,31.98
2023-04-20T08:16:08.061Z,31.40
2023-04-20T08:18:32.626Z,31.35
2023-04-20T08:20:59.579Z,33.03
2023-04-20T08:23:28.884Z,32.95
2023-04-20T08:25:53.396Z,31.30
2023-04-20T08:28:32.836Z,29.80
2023-04-20T08:30:58.562Z,32.63
2023-04-20T08:33:23.508Z,30.90
2023-04-20T08:35:48.088Z,30.08
2023-04-20T08:38:15.760Z,29.48
2023-04-20T08:40:44.652Z,29.17
2023-04-20T08:43:09.157Z,30.35
2023-04-20T08:45:33.650Z,32.17
2023-04-20T08:48:00.041Z,32.45
2023-04-20T08:50:24.582Z,31.02
2023-04-20T08:52:49.012Z,28.25
2023-04-20T08:55:17.554Z,29.13
2023-04-20T08:57:43.869Z,27.70
2023-04-20T09:00:13.598Z,35.78
2023-04-20T09:02:39.025Z,29.25
2023-04-20T09:05:05.120Z,26.52
2023-04-20T09:07:30.191Z,25.80
2023-04-20T09:09:58.156Z,28.90
2023-04-20T09:12:23.050Z,27.67
2023-04-20T09:14:49.305Z,27.75
2023-04-20T09:17:15.325Z,26.38
2023-04-20T09:19:39.846Z,26.38
2023-04-20T09:22:06.630Z,29.20
2023-04-20T09:24:34.022Z,29.38
2023-04-20T09:26:58.644Z,28.77
2023-04-20T09:29:25.653Z,29.63
2023-04-20T09:31:52.202Z,29.50
2023-04-20T09:34:17.752Z,29.83
2023-04-20T09:36:44.373Z,31.10
2023-04-20T09:39:11.932Z,32.90
2023-04-20T09:41:37.294Z,33.30
2023-04-20T09:44:02.397Z,30.90
2023-04-20T09:46:29.692Z,33.20
2023-04-20T09:48:55.959Z,32.05
2023-04-20T09:51:20.759Z,32.28
2023-04-20T09:53:47.694Z,33.28
2023-04-20T09:56:13.223Z,33.05
2023-04-20T09:58:44.370Z,31.83
2023-04-20T10:01:12.138Z,32.72
2023-04-20T10:03:37.080Z,32.00
2023-04-20T10:06:03.376Z,30.92
2023-04-20T10:08:27.965Z,28.83
2023-04-20T10:10:52.643Z,29.27
2023-04-20T10:13:19.550Z,29.30
2023-04-20T10:15:44.507Z,29.05
2023-04-20T10:18:23.839Z,25.48
2023-04-20T10:20:50.573Z,23.58
2023-04-20T10:23:18.769Z,21.42
2023-04-20T10:25:45.725Z,19.60
2023-04-20T10:28:11.059Z,19.60
2023-04-20T10:30:38.262Z,19.45
2023-04-20T10:33:07.956Z,19.60
2023-04-20T10:38:11.542Z,15.68
2023-04-20T10:40:37.530Z,14.35
2023-04-20T10:43:02.016Z,11.90
2023-04-20T10:45:36.559Z,12.30
2023-04-20T10:48:09.134Z,12.35
2023-04-20T10:50:33.987Z,12.85
2023-04-20T10:52:58.409Z,13.48
2023-04-20T10:55:24.533Z,11.95
2023-04-20T10:57:50.702Z,11.93
2023-04-20T11:00:17.796Z,11.05
2023-04-20T11:02:52.501Z,10.70
2023-04-20T11:05:19.083Z,8.80
2023-04-20T11:07:51.928Z,9.27
2023-04-20T11:10:16.498Z,9.20
2023-04-20T11:12:41.083Z,8.63
2023-04-20T11:15:09.818Z,8.90
2023-04-20T11:17:34.749Z,7.85
2023-04-20T11:20:11.093Z,6.65
2023-04-20T11:22:35.799Z,7.63
2023-04-20T11:25:06.993Z,7.25
2023-04-20T11:27:31.551Z,6.88
2023-04-20T11:29:59.929Z,6.45
2023-04-20T11:32:26.833Z,6.05
2023-04-20T11:35:06.687Z,5.97
2023-04-20T11:37:31.729Z,5.93
2023-04-20T11:40:04.818Z,6.40
2023-04-20T11:42:29.531Z,6.10
2023-04-20T11:44:54.124Z,6.88
2023-04-20T11:47:18.836Z,7.65
2023-04-20T11:49:44.856Z,6.18
2023-04-20T11:52:14.425Z,6.30
2023-04-20T11:54:39.026Z,5.97
2023-04-20T11:57:04.499Z,6.15
2023-04-20T11:59:29.098Z,5.85
2023-04-20T12:01:55.856Z,6.03
2023-04-20T12:04:20.909Z,5.45
2023-04-20T12:06:47.090Z,5.43
2023-04-20T12:09:13.572Z,5.53
2023-04-20T12:11:38.630Z,6.35
2023-04-20T12:14:03.645Z,5.80
2023-04-20T12:16:28.256Z,6.32
2023-04-20T12:18:52.870Z,5.13
2023-04-20T12:21:17.467Z,5.20
2023-04-20T12:23:44.317Z,5.70
2023-04-20T12:26:11.732Z,5.13
2023-04-20T12:28:36.344Z,5.85
2023-04-20T12:31:01.213Z,5.53
2023-04-20T12:33:25.906Z,4.75
2023-04-20T12:35:50.556Z,5.82
2023-04-20T12:38:14.980Z,5.72
2023-04-20T12:40:41.022Z,5.18
2023-04-20T12:43:05.553Z,5.43
2023-04-20T12:45:30.215Z,4.95
2023-04-20T12:47:57.807Z,5.15
2023-04-20T12:50:23.864Z,5.33
2023-04-20T12:52:48.355Z,5.50
2023-04-20T12:55:14.452Z,4.80
2023-04-20T12:57:40.611Z,4.70
2023-04-20T13:00:07.157Z,4.70
2023-04-20T13:02:31.846Z,5.07
2023-04-20T13:04:57.110Z,4.80
2023-04-20T13:07:26.135Z,3.83
2023-04-20T13:09:59.017Z,3.13
2023-04-20T13:12:24.136Z,3.55
2023-04-20T13:15:13.608Z,3.60
2023-04-20T13:17:42.304Z,3.72
2023-04-20T13:20:08.625Z,3.45
2023-04-20T13:22:41.128Z,2.80
2023-04-20T13:25:17.768Z,3.10
2023-04-20T13:27:42.540Z,3.10
2023-04-20T13:30:17.270Z,3.03
2023-04-20T13:32:45.598Z,3.22
2023-04-20T13:35:14.850Z,3.83
2023-04-20T13:37:40.060Z,3.75
2023-04-20T13:40:05.534Z,3.90
2023-04-20T13:42:30.692Z,4.10
2023-04-20T13:44:58.396Z,3.95
2023-04-20T13:47:25.692Z,3.60
2023-04-20T13:49:50.773Z,4.10
2023-04-20T13:52:15.537Z,3.55
2023-04-20T13:54:40.285Z,3.65
2023-04-20T13:57:05.201Z,3.83
2023-04-20T13:59:30.301Z,4.57
2023-04-20T14:01:55.673Z,4.68
2023-04-20T14:04:22.267Z,4.20
2023-04-20T14:06:47.476Z,4.10
2023-04-20T14:09:12.843Z,4.03
2023-04-20T14:11:37.809Z,3.70
2023-04-20T14:14:02.577Z,3.97
2023-04-20T14:16:27.835Z,3.85
2023-04-20T14:18:52.996Z,3.42
2023-04-20T14:21:21.984Z,4.20
2023-04-20T14:23:46.619Z,3.80
2023-04-20T14:26:14.652Z,3.75
2023-04-20T14:28:39.341Z,4.90
2023-04-20T14:31:04.791Z,4.20
2023-04-20T14:33:29.482Z,4.93
2023-04-20T14:35:54.131Z,5.22
2023-04-20T14:38:20.782Z,6.05
2023-04-20T14:40:46.279Z,6.35
2023-04-20T14:43:11.280Z,6.75
2023-04-20T14:45:36.852Z,6.78
2023-04-20T14:48:04.236Z,7.28
2023-04-20T14:50:32.093Z,8.00
2023-04-20T14:52:59.227Z,7.68
2023-04-20T14:55:26.303Z,7.72
2023-04-20T14:57:52.357Z,7.25
2023-04-20T15:00:18.255Z,7.40
2023-04-20T15:02:43.582Z,7.47
2023-04-20T15:05:11.204Z,7.68
2023-04-20T15:07:36.372Z,8.27
2023-04-20T15:10:01.412Z,7.72
2023-04-20T15:12:29.076Z,7.82
2023-04-20T15:14:54.367Z,8.10
2023-04-20T15:17:19.221Z,8.20
2023-04-20T15:19:55.941Z,7.78
2023-04-20T15:22:21.123Z,8.35
2023-04-20T15:24:45.922Z,8.43
2023-04-20T15:27:10.923Z,7.97
2023-04-20T15:29:38.561Z,5.32
2023-04-20T15:32:03.926Z,5.53
2023-04-20T15:34:30.215Z,6.63
2023-04-20T15:36:54.826Z,7.93
2023-04-20T15:39:19.500Z,8.70
2023-04-20T15:41:47.085Z,8.05
2023-04-20T15:44:11.675Z,8.77
2023-04-20T15:46:39.807Z,9.07
2023-04-20T15:49:04.801Z,8.80
2023-04-20T15:51:30.275Z,9.38
2023-04-20T15:53:55.060Z,9.18
2023-04-20T15:56:22.286Z,9.35
2023-04-20T15:58:48.907Z,9.45
2023-04-20T16:01:14.145Z,9.73
2023-04-20T16:03:41.392Z,10.18
2023-04-20T16:06:08.552Z,10.18
2023-04-20T16:08:35.870Z,11.45
2023-04-20T16:11:00.770Z,11.82
2023-04-20T16:13:26.604Z,11.95
2023-04-20T16:15:53.621Z,13.57
2023-04-20T16:18:18.695Z,13.50
2023-04-20T16:20:45.346Z,14.77
2023-04-20T16:23:09.910Z,14.10
2023-04-20T16:25:35.110Z,14.00
2023-04-20T16:27:59.779Z,12.20
2023-04-20T16:30:24.624Z,11.25
2023-04-20T16:32:49.980Z,10.38
2023-04-20T16:35:14.987Z,11.20
2023-04-20T16:37:41.223Z,12.32
2023-04-20T16:40:08.714Z,10.88
2023-04-20T16:42:34.694Z,11.60
2023-04-20T16:45:01.179Z,8.27
2023-04-20T16:47:28.665Z,8.75
2023-04-20T16:49:53.437Z,7.95
2023-04-20T16:52:17.984Z,8.13
2023-04-20T16:54:46.882Z,8.23
2023-04-20T16:57:11.986Z,7.95
2023-04-20T16:59:36.569Z,9.18
2023-04-20T17:02:01.581Z,7.47
2023-04-20T17:04:26.807Z,7.60
2023-04-20T17:06:51.924Z,7.88
2023-04-20T17:09:17.137Z,6.85
2023-04-20T17:11:44.364Z,7.68
2023-04-20T17:14:30.423Z,7.57
2023-04-20T17:16:56.675Z,7.40
2023-04-20T17:19:21.754Z,7.53
2023-04-20T17:21:46.772Z,7.05
2023-04-20T17:24:11.380Z,7.53
2023-04-20T17:26:36.230Z,6.60
2023-04-20T17:29:03.179Z,6.28
2023-04-20T17:31:28.112Z,7.25
2023-04-20T17:33:56.529Z,6.55
2023-04-20T17:36:22.818Z,6.72
2023-04-20T17:38:47.873Z,7.25
2023-04-20T17:41:12.921Z,6.68
2023-04-20T17:43:40.562Z,7.25
2023-04-20T17:46:07.105Z,7.72
2023-04-20T17:48:31.883Z,6.93
2023-04-20T17:50:58.634Z,8.75
2023-04-20T17:53:23.605Z,8.25
2023-04-20T17:55:48.782Z,8.45
2023-04-20T17:58:14.111Z,8.70
2023-04-20T18:00:38.927Z,8.50
2023-04-20T18:03:09.914Z,9.18
2023-04-20T18:05:34.982Z,8.25
2023-04-20T18:08:00.059Z,8.73
2023-04-20T18:10:25.136Z,8.93
2023-04-20T18:12:49.867Z,8.43
2023-04-20T18:15:14.682Z,9.20
2023-04-20T18:17:39.360Z,9.43
2023-04-20T18:20:07.003Z,9.38
2023-04-20T18:22:31.735Z,8.52
2023-04-20T18:24:56.533Z,8.95
2023-04-20T18:27:21.780Z,8.90
2023-04-20T18:29:46.682Z,9.40
2023-04-20T18:32:11.700Z,8.98
2023-04-20T18:34:37.778Z,8.75
2023-04-20T18:37:04.021Z,10.25
2023-04-20T18:39:30.788Z,9.20
2023-04-20T18:41:55.312Z,8.50
2023-04-20T18:44:20.560Z,9.50
2023-04-20T18:46:45.738Z,9.70
2023-04-20T18:49:12.165Z,8.43
2023-04-20T18:51:39.005Z,9.27
2023-04-20T18:54:06.877Z,9.93
2023-04-20T18:58:59.900Z,10.55
2023-04-20T19:01:24.749Z,10.60
2023-04-20T19:03:50.197Z,10.20
2023-04-20T19:06:15.095Z,10.15
2023-04-20T19:08:40.346Z,10.07
2023-04-20T19:11:06.851Z,10.82
2023-04-20T19:13:35.797Z,11.63
2023-04-20T19:16:00.670Z,9.77
2023-04-20T19:18:26.166Z,10.25
2023-04-20T19:20:58.922Z,10.05
2023-04-20T19:23:26.372Z,9.50
2023-04-20T19:25:51.474Z,9.65
2023-04-20T19:28:40.097Z,9.93
2023-04-20T19:31:09.209Z,9.75
2023-04-20T19:33:39.372Z,9.13
2023-04-20T19:36:06.465Z,9.18
2023-04-20T19:38:32.292Z,8.82
2023-04-20T19:40:56.861Z,8.68
2023-04-20T19:43:22.167Z,8.65
2023-04-20T19:45:48.390Z,8.68
2023-04-20T19:48:15.997Z,8.55
2023-04-20T19:50:41.467Z,8.88
2023-04-20T19:53:06.475Z,8.70
2023-04-20T19:55:31.958Z,8.82
2023-04-20T19:57:57.149Z,8.23
2023-04-20T20:00:21.943Z,8.68
2023-04-20T20:02:48.490Z,8.50
2023-04-20T20:05:13.309Z,8.77
2023-04-20T20:07:38.342Z,8.05
2023-04-20T20:10:03.257Z,8.07
2023-04-20T20:12:28.509Z,8.73
2023-04-20T20:14:53.192Z,8.38
2023-04-20T20:17:19.624Z,9.85
2023-04-20T20:19:45.803Z,9.38
2023-04-20T20:22:11.396Z,8.85
2023-04-20T20:24:36.116Z,8.85
2023-04-20T20:30:43.852Z,9.60
2023-04-20T20:33:27.260Z,9.80
2023-04-20T20:36:04.546Z,11.45
2023-04-20T20:38:40.643Z,11.75
2023-04-20T20:41:16.426Z,14.23
2023-04-20T20:52:40.672Z,25.95
2023-04-20T20:59:28.830Z,17.05
2023-04-20T21:01:54.208Z,14.50
2023-04-20T21:04:18.971Z,12.38
2023-04-20T21:06:43.728Z,13.27
2023-04-20T21:09:10.322Z,11.85
2023-04-20T21:11:35.266Z,12.50
2023-04-20T21:14:02.216Z,11.93
2023-04-20T21:16:26.866Z,10.93
2023-04-20T21:18:51.786Z,10.90
2023-04-20T21:21:16.636Z,10.50
2023-04-20T21:23:41.178Z,10.43
2023-04-20T21:26:07.336Z,9.35
2023-04-20T21:28:32.862Z,9.95
2023-04-20T21:30:57.980Z,9.70
2023-04-20T21:33:22.771Z,10.63
2023-04-20T21:35:47.508Z,9.73
2023-04-20T21:38:12.976Z,10.52
2023-04-20T21:40:37.664Z,9.45
2023-04-20T21:43:03.750Z,11.15
2023-04-20T21:45:28.491Z,9.35
2023-04-20T21:47:55.527Z,11.40
2023-04-20T21:50:20.639Z,10.38
2023-04-20T21:52:46.084Z,11.40
2023-04-20T21:55:11.474Z,12.48
2023-04-20T21:57:43.420Z,14.80
2023-04-20T22:00:14.102Z,12.70
2023-04-20T22:02:42.997Z,12.80
2023-04-20T22:05:09.978Z,13.18
2023-04-20T22:07:38.440Z,11.98
2023-04-20T22:10:07.213Z,12.82
2023-04-20T22:12:39.489Z,12.75
2023-04-20T22:15:04.699Z,12.07
2023-04-20T22:17:31.300Z,12.07
2023-04-20T22:19:56.237Z,12.45
2023-04-20T22:22:21.135Z,12.45
2023-04-20T22:24:47.021Z,12.40
2023-04-20T22:27:11.608Z,11.52
2023-04-20T22:29:36.637Z,11.38
2023-04-20T22:32:01.286Z,11.73
2023-04-20T22:34:27.547Z,11.20
2023-04-20T22:36:52.232Z,11.00
2023-04-20T22:39:17.092Z,11.80
2023-04-20T22:41:42.456Z,9.55
2023-04-20T22:44:07.295Z,8.75
2023-04-20T22:46:32.297Z,8.32
2023-04-20T22:48:59.384Z,7.80
2023-04-20T22:51:26.099Z,7.22
2023-04-20T22:53:50.827Z,7.88
2023-04-20T22:56:15.828Z,7.78
2023-04-20T22:58:40.478Z,7.43
2023-04-20T23:01:04.985Z,8.15
2023-04-20T23:03:29.878Z,7.78
2023-04-20T23:05:57.712Z,7.68
2023-04-20T23:08:23.947Z,7.13
2023-04-20T23:10:51.329Z,6.97
2023-04-20T23:13:18.175Z,7.32
2023-04-20T23:15:42.889Z,7.53
2023-04-20T23:18:07.811Z,7.80
2023-04-20T23:20:32.663Z,7.60
2023-04-20T23:22:57.672Z,7.35
2023-04-20T23:25:24.089Z,7.28
2023-04-20T23:27:48.730Z,8.50
2023-04-20T23:30:14.196Z,7.50
2023-04-20T23:32:39.306Z,7.47
2023-04-20T23:35:03.930Z,8.32
2023-04-20T23:37:28.794Z,7.38
2023-04-20T23:39:53.343Z,7.38
2023-04-20T23:42:19.677Z,8.48
2023-04-20T23:44:44.272Z,7.55
2023-04-20T23:47:08.947Z,8.05
2023-04-20T23:49:33.740Z,7.68
2023-04-20T23:51:58.346Z,9.10
2023-04-20T23:54:23.115Z,8.48
2023-04-20T23:56:47.719Z,7.82
2023-04-20T23:59:13.642Z,6.97
